CheckWX is a tool to help pilots better visualize weather data.  It is not intended as a substitute for an official pre-flight weather briefing.

20:13:59 UTC

KLNQ METAR
Boothville Heliport
Boothville, Louisiana, USA
Current

19 mins ago

KLNQ 231955Z AUTO 13005KT 10SM SCT027 24/16 A3012 RMK AO2 T02390164
Observed
Apr-23 @ 19:55 UTC
Wind
  • 130° at 5 KTS
Visibility
10 SM
Flight Rules
VFR
Cloud Levels
  • Scattered at 2,700' AGL
Temperature
24°C / 75°F
Dewpoint
16°C / 61°F
Humidity
61%
Altimeter
30.12" Hg
Pressure
1020.02 hPa
Previous

39 mins ago

KLNQ 231935Z AUTO 08005KT 10SM SCT027 SCT120 24/17 A3012 RMK AO2 T02420166
Observed
Apr-23 @ 19:35 UTC
Wind
  • 080° at 5 KTS
Visibility
10 SM
Flight Rules
VFR
Cloud Levels
  • Scattered at 2,700' AGL
  • Scattered at 12,000' AGL
Temperature
24°C / 75°F
Dewpoint
17°C / 63°F
Humidity
65%
Altimeter
30.12" Hg
Pressure
1020.02 hPa
Previous

59 mins ago

KLNQ 231915Z AUTO 08005KT 10SM CLR 23/16 A3013 RMK AO2 T02310161
Observed
Apr-23 @ 19:15 UTC
Wind
  • 080° at 5 KTS
Visibility
10 SM
Flight Rules
VFR
Cloud Levels
  • Clear skies
Temperature
23°C / 73°F
Dewpoint
16°C / 61°F
Humidity
65%
Altimeter
30.13" Hg
Pressure
1020.32 hPa